KBKL

Burke Lakefront Airport

Cleveland, Ohio, USA
METAR KBKL 260253Z 24012KT 10SM CLR 04/M01 A3009 RMK AO2 SLP193 T00441006 51026
Observed Flight Rules
Feb-26 @ 02:53 UTC (24 minutes ago) Visual Flight Rules
Wind Visibility Clouds
240° at 12 knots 10 miles
  • Clear skies
Temperatures Readings
Current 4°C / 39°F
Dewpoint -1°C / 30°F
Humidity 70%
Altimeter 30.09" Hg
Pressure 1019.3 hPa
Elevation 184
METAR KBKL 260253Z 24012KT 10SM CLR 04/M01 A3009 RMK AO2 SLP193 T00441006 51026
Observed Flight Rules
Feb-26 @ 02:53 UTC
(24 minutes ago)
VFR
Wind Visibility
240° at 12 knots 10 miles
Clouds
  • Clear skies
Temperature Dewpoint
4°C / 39°F -1°C / 30°F
Humidity Altimeter Pressure
70% 30.09" Hg 1019.3 hPa